Time;durP1;ratioP1;P1;durP2;ratioP2;P2;SDS_P1;SDS_P2;PMS_P1;PMS_P2;Temp;Humidity;BMP_temperature;BMP_pressure;BME280_temperature;BME280_humidity;BME280_pressure;Samples;Min_cycle;Max_cycle;Signal;HPM_P1;HPM_P2
2023/03/02 00:00:51;;;;;;;30.00;20.02;;;;;;;-0.41;100.00;92797.84;2570528;23;20344;-86
2023/03/02 00:01:54;;;;;;;33.20;20.15;;;;;;;-0.46;100.00;92806.03;2571009;23;20004;-86
2023/03/02 00:02:58;;;;;;;33.63;20.95;;;;;;;-0.45;100.00;92804.91;2571308;23;20008;-85
2023/03/02 00:04:02;;;;;;;32.17;19.90;;;;;;;-0.39;100.00;92796.41;2559302;23;20005;-85
2023/03/02 00:05:05;;;;;;;31.45;19.92;;;;;;;-0.41;100.00;92795.22;2559352;23;20035;-87
2023/03/02 00:06:10;;;;;;;29.30;20.10;;;;;;;-0.43;100.00;92792.97;2559317;23;20448;-87
2023/03/02 00:07:15;;;;;;;30.58;20.02;;;;;;;-0.40;100.00;92799.34;2584233;22;20004;-87
2023/03/02 00:08:20;;;;;;;29.58;20.35;;;;;;;-0.40;100.00;92797.47;2596788;22;20479;-89
2023/03/02 00:09:22;;;;;;;32.45;19.77;;;;;;;-0.41;100.00;92795.97;2596159;22;20004;-83
2023/03/02 00:10:26;;;;;;;31.17;20.00;;;;;;;-0.46;100.00;92793.66;2583713;22;20412;-85
2023/03/02 00:11:29;;;;;;;28.75;19.92;;;;;;;-0.48;100.00;92801.16;2558252;23;20009;-86
2023/03/02 00:12:32;;;;;;;32.42;20.08;;;;;;;-0.20;100.00;92797.38;2559863;23;20032;-87
2023/03/02 00:13:42;;;;;;;30.30;19.75;;;;;;;-0.31;100.00;92797.22;2571855;22;20317;-86
2023/03/02 00:14:43;;;;;;;32.65;20.77;;;;;;;-0.36;100.00;92802.78;2572895;23;20036;-86
2023/03/02 00:15:45;;;;;;;32.80;20.80;;;;;;;-0.34;100.00;92801.34;2570956;22;20019;-88
2023/03/02 00:16:49;;;;;;;30.17;21.10;;;;;;;-0.44;100.00;92793.28;2570844;23;20129;-87
2023/03/02 00:17:54;;;;;;;29.58;20.67;;;;;;;-0.51;100.00;92797.34;2558891;23;20016;-88
2023/03/02 00:18:58;;;;;;;30.80;20.35;;;;;;;-0.53;100.00;92796.16;2560297;23;20009;-89
2023/03/02 00:20:06;;;;;;;31.75;20.38;;;;;;;-0.59;100.00;92792.34;2572672;22;20425;-89
2023/03/02 00:21:09;;;;;;;35.72;21.50;;;;;;;-0.51;100.00;92786.84;2583061;23;20008;-89
2023/03/02 00:22:10;;;;;;;36.40;20.98;;;;;;;-0.28;100.00;92794.66;2571044;23;20000;-86
2023/03/02 00:23:14;;;;;;;30.75;20.98;;;;;;;-0.52;100.00;92792.47;2571026;22;20005;-86
2023/03/02 00:24:15;;;;;;;32.00;20.95;;;;;;;-0.54;100.00;92795.41;2583826;22;20063;-85
2023/03/02 00:25:22;;;;;;;33.85;20.30;;;;;;;-0.54;100.00;92787.53;2571273;23;20008;-87
2023/03/02 00:28:23;;;;;;;28.70;19.92;;;;;;;-0.48;100.00;92787.22;2579611;22;20086;-84
2023/03/02 00:29:24;;;;;;;32.85;19.80;;;;;;;-0.45;100.00;92795.16;2578259;23;20000;-86
2023/03/02 00:30:26;;;;;;;33.78;20.88;;;;;;;-0.49;100.00;92790.97;2570949;22;20004;-88
2023/03/02 00:31:29;;;;;;;32.10;21.25;;;;;;;-0.51;100.00;92792.09;2583358;22;20003;-85
2023/03/02 00:32:33;;;;;;;30.10;20.20;;;;;;;-0.51;100.00;92791.34;2571439;23;20007;-89
2023/03/02 00:33:37;;;;;;;34.30;20.63;;;;;;;-0.59;100.00;92794.97;2559579;23;20015;-89
2023/03/02 00:34:41;;;;;;;28.48;19.58;;;;;;;-0.29;100.00;92789.78;2546863;23;20084;-88
2023/03/02 00:35:45;;;;;;;36.70;20.75;;;;;;;-0.50;100.00;92798.09;2561021;22;20479;-87
2023/03/02 00:36:49;;;;;;;33.17;20.75;;;;;;;-0.55;100.00;92785.28;2583863;22;20024;-88
2023/03/02 00:37:53;;;;;;;31.75;21.13;;;;;;;-0.34;100.00;92784.81;2571336;23;20024;-84
2023/03/02 00:38:58;;;;;;;30.92;20.88;;;;;;;-0.39;100.00;92788.53;2559937;23;20310;-86
2023/03/02 00:40:00;;;;;;;30.02;20.63;;;;;;;-0.46;100.00;92783.16;2571304;23;20000;-86
2023/03/02 00:41:10;;;;;;;33.20;21.50;;;;;;;-0.50;100.00;92777.09;2558557;23;20008;-88
2023/03/02 00:42:11;;;;;;;30.73;20.38;;;;;;;-0.52;100.00;92782.72;2560958;23;20344;-88
2023/03/02 00:43:12;;;;;;;35.00;22.02;;;;;;;-0.52;100.00;92779.34;2583480;22;20029;-86
2023/03/02 00:44:22;;;;;;;31.50;20.45;;;;;;;-0.48;100.00;92774.88;2595831;22;20008;-88
2023/03/02 00:45:23;;;;;;;31.63;21.05;;;;;;;-0.51;100.00;92770.34;2572497;23;20005;-88
2023/03/02 00:46:27;;;;;;;31.38;21.27;;;;;;;-0.57;100.00;92774.38;2558369;23;20005;-88
2023/03/02 00:47:33;;;;;;;32.80;21.15;;;;;;;-0.63;100.00;92773.91;2559316;23;20005;-88
2023/03/02 00:48:57;;;;;;;31.95;20.67;;;;;;;-0.64;100.00;92772.41;2584159;22;20039;-86
2023/03/02 00:49:58;;;;;;;33.65;20.52;;;;;;;-0.67;100.00;92769.72;2575068;23;20030;-89
2023/03/02 00:51:00;;;;;;;35.10;20.58;;;;;;;-0.65;100.00;92776.16;2570505;23;20456;-87
2023/03/02 00:52:02;;;;;;;31.35;21.65;;;;;;;-0.73;100.00;92766.66;2558519;23;20488;-88
2023/03/02 00:53:07;;;;;;;31.90;20.80;;;;;;;-0.79;100.00;92768.84;2559050;23;20013;-89
2023/03/02 00:54:09;;;;;;;33.38;22.15;;;;;;;-0.77;100.00;92768.47;2572360;22;20064;-89
2023/03/02 00:55:12;;;;;;;34.15;21.27;;;;;;;-0.70;100.00;92765.97;2570491;23;20074;-88
2023/03/02 00:56:16;;;;;;;31.13;21.73;;;;;;;-0.62;100.00;92772.78;2559620;23;20483;-88
2023/03/02 00:57:18;;;;;;;34.10;21.50;;;;;;;-0.70;100.00;92773.84;2559477;23;20456;-86
2023/03/02 00:58:24;;;;;;;33.03;21.20;;;;;;;-0.72;100.00;92776.03;2571647;22;20001;-87
2023/03/02 00:59:25;;;;;;;30.58;20.88;;;;;;;-0.76;100.00;92775.97;2571706;23;20063;-89
2023/03/02 01:00:36;;;;;;;32.60;21.40;;;;;;;-0.80;100.00;92769.91;2561003;23;20416;-85
2023/03/02 01:01:37;;;;;;;31.23;20.05;;;;;;;-0.72;100.00;92762.91;2560367;23;20013;-88
2023/03/02 01:02:42;;;;;;;37.47;21.88;;;;;;;-0.74;100.00;92764.41;2570595;23;20004;-89
2023/03/02 01:03:45;;;;;;;31.55;21.92;;;;;;;-0.78;100.00;92762.47;2571472;23;20004;-87
2023/03/02 01:04:52;;;;;;;33.03;21.90;;;;;;;-0.79;100.00;92757.56;2570816;23;20011;-88
2023/03/02 01:05:55;;;;;;;33.30;21.65;;;;;;;-0.77;100.00;92758.72;2583906;22;20149;-88
2023/03/02 01:07:06;;;;;;;35.20;22.13;;;;;;;-0.86;100.00;92766.09;2571069;23;20060;-87
2023/03/02 01:08:07;;;;;;;36.65;21.70;;;;;;;-0.84;100.00;92766.47;2562385;23;20001;-87
2023/03/02 01:09:11;;;;;;;29.80;21.08;;;;;;;-0.72;100.00;92765.53;2557927;23;20123;-89
2023/03/02 01:10:13;;;;;;;34.83;21.35;;;;;;;-0.79;100.00;92768.03;2559581;23;20005;-88
2023/03/02 01:11:15;;;;;;;31.42;20.98;;;;;;;-0.84;100.00;92763.09;2570929;22;20416;-87
2023/03/02 01:12:17;;;;;;;31.00;21.13;;;;;;;-0.79;100.00;92765.44;2570596;23;20040;-90
2023/03/02 01:13:21;;;;;;;29.80;20.75;;;;;;;-0.76;100.00;92767.34;2558351;23;20009;-86
2023/03/02 01:14:25;;;;;;;33.05;22.13;;;;;;;-0.77;100.00;92765.84;2571147;23;20506;-88
2023/03/02 01:15:28;;;;;;;32.90;20.90;;;;;;;-0.82;100.00;92761.66;2584254;22;20431;-88
2023/03/02 01:16:37;;;;;;;33.78;21.70;;;;;;;-0.59;100.00;92764.22;2583182;23;20008;-88
2023/03/02 01:17:40;;;;;;;31.55;20.73;;;;;;;-0.59;100.00;92761.59;2561230;23;20440;-87
2023/03/02 01:18:42;;;;;;;30.55;21.15;;;;;;;-0.64;100.00;92756.66;2558882;23;20009;-88
2023/03/02 01:19:47;;;;;;;32.72;22.50;;;;;;;-0.60;100.00;92757.47;2571268;22;20008;-85
2023/03/02 01:20:48;;;;;;;33.25;21.85;;;;;;;-0.62;100.00;92761.53;2571320;23;20004;-86
2023/03/02 01:21:51;;;;;;;33.83;21.35;;;;;;;-0.67;100.00;92759.22;2570658;23;20765;-85
2023/03/02 01:22:58;;;;;;;31.23;21.55;;;;;;;-0.65;100.00;92757.78;2584418;22;19996;-87
2023/03/02 01:24:02;;;;;;;30.90;21.00;;;;;;;-0.63;100.00;92758.16;2584255;22;20435;-86
2023/03/02 01:25:04;;;;;;;31.50;21.15;;;;;;;-0.54;100.00;92756.03;2571344;23;20013;-85
2023/03/02 01:26:09;;;;;;;30.17;20.75;;;;;;;-0.31;100.00;92749.97;2571530;22;20004;-84
2023/03/02 01:27:12;;;;;;;30.77;20.67;;;;;;;-0.59;100.00;92750.34;2583664;22;20004;-85
2023/03/02 01:28:22;;;;;;;32.40;21.27;;;;;;;-0.60;100.00;92749.59;2570686;23;20036;-86
2023/03/02 01:29:55;;;;;;;;;;;;;;;-0.68;100.00;92737.47;2562661;23;20337;-85
2023/03/02 01:30:57;;;;;;;28.30;18.63;;;;;;;-0.75;100.00;92737.38;2571223;23;20258;-84
2023/03/02 01:32:00;;;;;;;30.13;19.98;;;;;;;-0.62;100.00;92730.81;2557974;23;20080;-86
2023/03/02 01:33:04;;;;;;;31.80;20.42;;;;;;;-0.73;100.00;92737.03;2571741;22;20009;-85
2023/03/02 01:34:14;;;;;;;32.65;20.98;;;;;;;-0.80;100.00;92733.19;2570975;23;20450;-84
2023/03/02 01:35:17;;;;;;;30.25;20.70;;;;;;;-0.78;100.00;92730.97;2561850;23;20067;-85
2023/03/02 01:36:18;;;;;;;32.92;21.40;;;;;;;-0.79;100.00;92726.06;2570822;22;20432;-88
2023/03/02 01:37:22;;;;;;;32.55;21.85;;;;;;;-0.84;100.00;92723.75;2582969;22;20000;-85
2023/03/02 01:38:23;;;;;;;30.92;21.38;;;;;;;-0.90;100.00;92728.56;2571016;23;20011;-84
2023/03/02 01:39:33;;;;;;;32.53;21.23;;;;;;;-0.82;100.00;92726.78;2583000;22;20031;-87
2023/03/02 01:40:34;;;;;;;30.73;20.77;;;;;;;-0.69;100.00;92729.97;2582708;23;20313;-85
2023/03/02 01:41:37;;;;;;;33.47;22.25;;;;;;;-0.79;100.00;92729.47;2570088;23;20008;-87
2023/03/02 01:42:46;;;;;;;35.35;22.13;;;;;;;-0.84;100.00;92719.25;2558655;23;20106;-87
2023/03/02 01:43:50;;;;;;;32.75;21.40;;;;;;;-0.87;100.00;92713.97;2573540;22;20001;-89
2023/03/02 01:44:56;;;;;;;32.72;20.95;;;;;;;-0.87;100.00;92721.84;2571149;23;20031;-87
2023/03/02 01:46:11;;;;;;;34.72;21.63;;;;;;;-0.90;100.00;92718.06;2559743;23;20000;-86
2023/03/02 01:47:29;;;;;;;30.20;19.98;;;;;;;-0.99;100.00;92716.78;2564111;23;20005;-86
2023/03/02 01:48:49;;;;;;;33.58;21.40;;;;;;;-0.90;100.00;92717.31;2564946;23;20050;-84
2023/03/02 01:50:04;;;;;;;31.55;20.25;;;;;;;-0.92;100.00;92717.66;2565700;23;20011;-84
2023/03/02 01:51:19;;;;;;;35.30;21.20;;;;;;;-0.84;100.00;92724.50;2563823;23;20443;-86
2023/03/02 01:52:22;;;;;;;35.03;20.80;;;;;;;-0.97;100.00;92715.31;2563463;23;20005;-83
2023/03/02 01:53:27;;;;;;;31.90;22.15;;;;;;;-0.99;100.00;92704.44;2583964;22;20453;-87
2023/03/02 01:54:28;;;;;;;35.42;21.98;;;;;;;-0.95;100.00;92705.25;2582683;23;20030;-86
2023/03/02 01:55:32;;;;;;;33.78;21.98;;;;;;;-0.66;100.00;92703.78;2558272;23;20060;-86
2023/03/02 01:56:37;;;;;;;34.67;22.75;;;;;;;-0.83;100.00;92709.53;2571002;23;20095;-86
2023/03/02 01:57:45;;;;;;;32.30;21.60;;;;;;;-0.94;100.00;92704.13;2559642;23;20040;-85
2023/03/02 01:58:53;;;;;;;37.50;23.00;;;;;;;-0.91;100.00;92700.06;2560879;23;20099;-88
2023/03/02 02:00:07;;;;;;;32.78;20.75;;;;;;;-0.91;100.00;92705.31;2561790;23;20100;-88
2023/03/02 02:01:14;;;;;;;33.85;21.65;;;;;;;-0.98;100.00;92705.94;2562455;23;20001;-84
2023/03/02 02:02:15;;;;;;;33.95;21.65;;;;;;;-1.02;100.00;92699.88;2560009;23;20635;-87
2023/03/02 02:03:32;;;;;;;32.67;22.25;;;;;;;-1.05;100.00;92700.63;2582523;23;20436;-85
2023/03/02 02:04:36;;;;;;;34.50;21.20;;;;;;;-1.13;100.00;92702.38;2564843;23;20575;-86
2023/03/02 02:05:40;;;;;;;32.20;21.23;;;;;;;-1.13;100.00;92704.22;2559291;23;20088;-84
2023/03/02 02:06:54;;;;;;;33.53;22.88;;;;;;;-1.07;100.00;92695.69;2571574;22;20000;-86
2023/03/02 02:07:56;;;;;;;34.05;22.65;;;;;;;-1.09;100.00;92700.56;2572846;23;20015;-87
2023/03/02 02:08:59;;;;;;;36.20;21.92;;;;;;;-1.13;100.00;92702.38;2570776;22;20083;-85
2023/03/02 02:10:01;;;;;;;32.13;21.90;;;;;;;-1.15;100.00;92706.44;2570706;23;20005;-83
2023/03/02 02:11:02;;;;;;;35.85;22.65;;;;;;;-1.18;100.00;92705.28;2570913;23;20080;-87
2023/03/02 02:12:04;;;;;;;36.90;22.55;;;;;;;-1.17;100.00;92704.16;2558080;23;20015;-85
2023/03/02 02:13:09;;;;;;;36.25;22.00;;;;;;;-1.17;100.00;92696.31;2558413;23;20054;-87
2023/03/02 02:14:11;;;;;;;33.17;23.13;;;;;;;-1.20;100.00;92699.63;2547031;23;20020;-86
2023/03/02 02:15:12;;;;;;;33.83;21.38;;;;;;;-1.20;100.00;92696.25;2558748;22;20009;-85
2023/03/02 02:16:16;;;;;;;35.30;23.40;;;;;;;-1.24;100.00;92705.91;2582800;23;20012;-88
2023/03/02 02:17:22;;;;;;;36.90;23.10;;;;;;;-1.21;100.00;92702.59;2559465;23;20471;-86
2023/03/02 02:18:27;;;;;;;34.08;22.60;;;;;;;-1.15;100.00;92704.56;2560036;23;20760;-87
2023/03/02 02:20:15;;;;;;;38.75;23.23;;;;;;;-1.23;100.00;92700.31;2558708;23;20092;-89
2023/03/02 02:21:29;;;;;;;;;;;;;;;-1.15;100.00;92701.94;2595455;22;20063;-87
2023/03/02 02:22:36;;;;;;;36.13;21.20;;;;;;;-1.17;100.00;92698.94;2570422;23;19907;-85
2023/03/02 02:24:10;;;;;;;33.78;20.83;;;;;;;-1.16;100.00;92707.53;2584681;22;20004;-88
2023/03/02 02:25:54;;;;;;;33.00;21.27;;;;;;;-1.15;100.00;92696.69;2576964;23;20038;-87
2023/03/02 02:26:58;;;;;;;34.80;21.45;;;;;;;-1.09;100.00;92700.56;2575556;23;20008;-85
2023/03/02 02:28:07;;;;;;;32.67;21.23;;;;;;;-1.19;100.00;92700.38;2583477;22;20007;-85
2023/03/02 02:29:25;;;;;;;34.65;22.70;;;;;;;-1.26;100.00;92695.78;2584314;22;20348;-88
2023/03/02 02:30:27;;;;;;;32.53;22.23;;;;;;;-1.22;100.00;92696.59;2573688;23;20004;-86
2023/03/02 02:31:39;;;;;;;32.63;22.05;;;;;;;-1.19;100.00;92695.88;2570716;22;20468;-85
2023/03/02 02:32:42;;;;;;;34.45;21.85;;;;;;;-1.15;100.00;92691.44;2572503;23;20023;-85
2023/03/02 02:33:48;;;;;;;36.38;23.70;;;;;;;-1.11;100.00;92696.75;2558641;23;20036;-86
2023/03/02 02:35:02;;;;;;;36.45;21.65;;;;;;;-1.23;100.00;92689.81;2563135;23;20032;-86
2023/03/02 02:36:07;;;;;;;35.65;22.38;;;;;;;-1.14;100.00;92698.22;2562223;23;20337;-87
2023/03/02 02:37:21;;;;;;;33.88;21.90;;;;;;;-1.15;100.00;92701.94;2572177;22;20425;-88
2023/03/02 02:38:24;;;;;;;33.28;22.40;;;;;;;-1.18;100.00;92692.19;2572837;23;20062;-86
2023/03/02 02:39:32;;;;;;;36.22;22.15;;;;;;;-1.17;100.00;92698.19;2559790;23;20008;-84
2023/03/02 02:41:23;;;;;;;35.53;22.65;;;;;;;-1.23;100.00;92695.06;2560521;23;20093;-88
2023/03/02 02:42:44;;;;;;;33.92;21.42;;;;;;;-1.24;100.00;92690.19;2595565;22;20015;-86
2023/03/02 02:43:46;;;;;;;36.47;22.40;;;;;;;-1.11;100.00;92681.78;2583677;22;20004;-88
2023/03/02 02:44:47;;;;;;;32.40;21.70;;;;;;;-1.13;100.00;92684.00;2570487;23;20054;-84
2023/03/02 02:45:56;;;;;;;34.20;22.98;;;;;;;-1.17;100.00;92693.69;2558793;23;20001;-85
2023/03/02 02:46:57;;;;;;;38.30;22.48;;;;;;;-1.20;100.00;92686.50;2561086;23;20012;-84
2023/03/02 02:47:59;;;;;;;32.33;22.05;;;;;;;-1.21;100.00;92687.63;2558058;23;20012;-85
2023/03/02 02:49:05;;;;;;;33.47;22.98;;;;;;;-1.23;100.00;92684.59;2558772;23;20005;-86
2023/03/02 02:50:15;;;;;;;33.40;22.52;;;;;;;-1.18;100.00;92684.31;2559544;23;20036;-86
2023/03/02 02:51:26;;;;;;;34.80;22.30;;;;;;;-1.13;100.00;92691.88;2574370;22;20140;-84
2023/03/02 02:52:31;;;;;;;33.97;21.40;;;;;;;-1.15;100.00;92691.44;2585678;22;20008;-86
2023/03/02 02:53:47;;;;;;;35.85;22.52;;;;;;;-1.08;100.00;92691.56;2583073;23;20004;-86
2023/03/02 02:54:58;;;;;;;33.08;22.17;;;;;;;-1.10;100.00;92696.44;2567187;23;20077;-83
2023/03/02 02:56:02;;;;;;;33.50;21.50;;;;;;;-0.95;100.00;92692.13;2560643;23;20001;-84
2023/03/02 02:57:04;;;;;;;35.55;23.25;;;;;;;-1.11;100.00;92687.03;2583433;22;20007;-88
2023/03/02 02:58:40;;;;;;;33.70;21.92;;;;;;;-0.88;100.00;92683.59;2570840;23;20005;-84
2023/03/02 02:59:45;;;;;;;32.17;21.48;;;;;;;-0.76;100.00;92691.25;2572106;23;20339;-88
2023/03/02 03:00:46;;;;;;;31.58;21.42;;;;;;;-0.94;100.00;92698.13;2570835;23;20071;-87
2023/03/02 03:01:58;;;;;;;33.50;21.35;;;;;;;-0.99;100.00;92701.06;2557933;23;20047;-86
2023/03/02 03:03:05;;;;;;;34.55;21.75;;;;;;;-1.10;100.00;92700.88;2572170;23;20435;-85
2023/03/02 03:04:06;;;;;;;33.35;20.90;;;;;;;-1.10;100.00;92703.50;2560217;23;20059;-86
2023/03/02 03:05:13;;;;;;;35.67;22.33;;;;;;;-1.00;100.00;92696.94;2557889;23;20025;-86
2023/03/02 03:06:19;;;;;;;34.72;22.45;;;;;;;-1.10;100.00;92698.25;2571187;23;20008;-89
2023/03/02 03:07:33;;;;;;;32.47;21.42;;;;;;;-1.14;100.00;92692.22;2571854;23;20000;-88
2023/03/02 03:08:40;;;;;;;34.90;23.25;;;;;;;-1.23;100.00;92695.06;2562377;23;20009;-86
2023/03/02 03:09:41;;;;;;;35.75;22.60;;;;;;;-1.20;100.00;92701.50;2560568;23;20425;-87
2023/03/02 03:10:43;;;;;;;33.33;23.33;;;;;;;-1.03;100.00;92703.63;2570579;22;20009;-87
2023/03/02 03:12:15;;;;;;;38.08;22.33;;;;;;;-1.14;100.00;92702.69;2582963;22;20004;-85
2023/03/02 03:13:16;;;;;;;35.03;22.23;;;;;;;-1.11;100.00;92694.88;2576678;23;20062;-87
2023/03/02 03:14:32;;;;;;;35.33;22.42;;;;;;;-1.15;100.00;92693.31;2561517;23;20007;-87
2023/03/02 03:15:34;;;;;;;39.30;22.37;;;;;;;-1.12;100.00;92696.00;2576079;22;20008;-85
2023/03/02 03:16:39;;;;;;;36.42;22.48;;;;;;;-1.05;100.00;92701.38;2571044;23;20447;-86
2023/03/02 03:17:46;;;;;;;34.97;23.08;;;;;;;-1.08;100.00;92702.06;2560402;23;20008;-86
2023/03/02 03:18:50;;;;;;;36.88;22.45;;;;;;;-1.12;100.00;92710.97;2584885;22;20026;-88
2023/03/02 03:19:51;;;;;;;37.30;23.17;;;;;;;-1.11;100.00;92708.00;2571429;23;20012;-86
2023/03/02 03:20:51;;;;;;;33.35;22.60;;;;;;;-1.01;100.00;92701.41;2558837;23;20009;-89
2023/03/02 03:21:56;;;;;;;35.47;22.40;;;;;;;-1.08;100.00;92709.94;2570795;23;20000;-89
2023/03/02 03:23:07;;;;;;;34.60;23.45;;;;;;;-1.10;100.00;92701.66;2584095;22;20032;-86
2023/03/02 03:24:09;;;;;;;36.90;23.55;;;;;;;-1.22;100.00;92704.47;2572772;23;20009;-84
2023/03/02 03:25:14;;;;;;;35.08;22.83;;;;;;;-1.21;100.00;92697.38;2558952;23;20091;-89
2023/03/02 03:26:15;;;;;;;32.78;22.33;;;;;;;-1.13;100.00;92691.88;2572567;22;20005;-88
2023/03/02 03:27:17;;;;;;;36.53;23.63;;;;;;;-1.11;100.00;92694.13;2596235;22;20003;-85
2023/03/02 03:28:18;;;;;;;35.20;23.30;;;;;;;-1.19;100.00;92688.03;2596199;22;20326;-88
2023/03/02 03:29:24;;;;;;;35.17;22.42;;;;;;;-1.12;100.00;92688.13;2570940;23;20004;-86
2023/03/02 03:30:27;;;;;;;35.63;23.27;;;;;;;-1.11;100.00;92689.66;2548348;23;20028;-88
2023/03/02 03:31:28;;;;;;;39.47;23.88;;;;;;;-1.18;100.00;92686.94;2548837;23;19997;-85
2023/03/02 03:32:34;;;;;;;40.30;23.92;;;;;;;-1.20;100.00;92680.50;2558874;23;20001;-86
2023/03/02 03:33:35;;;;;;;35.65;24.00;;;;;;;-1.26;100.00;92690.56;2572939;22;20004;-87
2023/03/02 03:34:39;;;;;;;36.67;22.88;;;;;;;-1.20;100.00;92680.50;2570838;23;20104;-87
2023/03/02 03:35:46;;;;;;;35.55;22.10;;;;;;;-1.09;100.00;92684.81;2561616;23;20001;-86
2023/03/02 03:36:50;;;;;;;36.45;23.20;;;;;;;-1.15;100.00;92688.84;2573147;22;20035;-86
2023/03/02 03:37:51;;;;;;;35.67;23.48;;;;;;;-0.91;100.00;92679.81;2584072;22;20016;-86
2023/03/02 03:38:52;;;;;;;31.35;22.10;;;;;;;-0.99;100.00;92687.94;2558907;23;20380;-87
2023/03/02 03:40:00;;;;;;;38.17;24.15;;;;;;;-1.03;100.00;92693.88;2560199;23;20009;-87
2023/03/02 03:41:01;;;;;;;34.45;22.45;;;;;;;-1.13;100.00;92699.00;2561362;23;20016;-87
2023/03/02 03:42:07;;;;;;;34.63;23.85;;;;;;;-1.14;100.00;92687.75;2571662;22;20510;-85
2023/03/02 03:43:14;;;;;;;34.00;21.63;;;;;;;-1.06;100.00;92689.34;2572444;23;20013;-88
2023/03/02 03:44:17;;;;;;;33.85;22.92;;;;;;;-1.19;100.00;92685.41;2560054;23;20084;-88
2023/03/02 03:45:21;;;;;;;35.40;23.05;;;;;;;-1.12;100.00;92682.91;2571685;22;20179;-88
2023/03/02 03:46:25;;;;;;;32.78;22.65;;;;;;;-1.19;100.00;92682.78;2571357;23;20000;-85
2023/03/02 03:47:28;;;;;;;37.03;24.23;;;;;;;-1.12;100.00;92685.50;2560585;23;20486;-87
2023/03/02 03:48:30;;;;;;;36.63;23.60;;;;;;;-1.14;100.00;92687.75;2571596;22;20038;-85
2023/03/02 03:49:38;;;;;;;37.13;23.88;;;;;;;-1.21;100.00;92689.50;2571247;23;20091;-88
2023/03/02 03:50:41;;;;;;;34.72;22.90;;;;;;;-1.18;100.00;92686.94;2561862;23;20044;-85
2023/03/02 03:51:46;;;;;;;38.33;23.95;;;;;;;-1.25;100.00;92681.56;2584106;22;20294;-87
2023/03/02 03:52:49;;;;;;;33.42;23.05;;;;;;;-1.28;100.00;92684.88;2583326;22;20103;-86
2023/03/02 03:54:00;;;;;;;36.60;23.48;;;;;;;-1.29;100.00;92680.75;2558931;23;20013;-88
2023/03/02 03:55:02;;;;;;;35.92;24.35;;;;;;;-1.28;100.00;92677.78;2572959;23;20005;-87
2023/03/02 03:56:06;;;;;;;39.65;24.40;;;;;;;-1.20;100.00;92683.88;2558703;23;20481;-84
2023/03/02 03:57:10;;;;;;;39.35;22.88;;;;;;;-0.97;100.00;92677.84;2559275;23;20001;-86
2023/03/02 03:58:12;;;;;;;33.67;21.88;;;;;;;-1.10;100.00;92683.31;2559916;23;20005;-86
2023/03/02 03:59:21;;;;;;;41.00;23.08;;;;;;;-1.16;100.00;92681.31;2571029;22;20016;-87
2023/03/02 04:00:23;;;;;;;37.67;23.23;;;;;;;-1.19;100.00;92688.03;2572340;23;20028;-85
2023/03/02 04:01:28;;;;;;;35.63;23.83;;;;;;;-1.18;100.00;92676.44;2570901;22;20515;-86
2023/03/02 04:02:29;;;;;;;37.20;23.38;;;;;;;-1.25;100.00;92673.72;2584153;22;20003;-85
2023/03/02 04:03:31;;;;;;;37.20;24.15;;;;;;;-1.22;100.00;92677.50;2582933;23;20004;-87
2023/03/02 04:04:35;;;;;;;36.67;23.52;;;;;;;-1.19;100.00;92682.78;2570685;23;20004;-86
2023/03/02 04:05:38;;;;;;;35.78;23.85;;;;;;;-1.23;100.00;92681.97;2572465;22;20016;-89
2023/03/02 04:06:43;;;;;;;39.92;25.13;;;;;;;-1.27;100.00;92684.56;2571418;23;20015;-87
2023/03/02 04:07:44;;;;;;;42.65;25.08;;;;;;;-1.32;100.00;92694.56;2560020;23;20005;-87
2023/03/02 04:08:46;;;;;;;40.97;24.67;;;;;;;-1.31;100.00;92688.22;2558657;23;20520;-88
2023/03/02 04:10:02;;;;;;;38.13;23.80;;;;;;;-1.33;100.00;92693.81;2559929;23;20380;-87
2023/03/02 04:11:04;;;;;;;44.60;24.23;;;;;;;-1.29;100.00;92686.75;2576757;22;20008;-88
2023/03/02 04:12:06;;;;;;;37.60;23.92;;;;;;;-1.27;100.00;92683.81;2583453;22;20004;-86
2023/03/02 04:13:08;;;;;;;41.70;23.58;;;;;;;-1.24;100.00;92683.06;2571162;23;20008;-87
2023/03/02 04:14:22;;;;;;;41.45;24.42;;;;;;;-1.19;100.00;92690.63;2558774;23;20001;-87
2023/03/02 04:15:31;;;;;;;36.47;23.42;;;;;;;-1.25;100.00;92686.81;2576168;22;20455;-87
2023/03/02 04:16:35;;;;;;;38.53;23.75;;;;;;;-1.28;100.00;92687.50;2585460;22;20008;-86
2023/03/02 04:17:37;;;;;;;39.30;23.10;;;;;;;-1.28;100.00;92687.50;2583313;23;20004;-85
2023/03/02 04:18:42;;;;;;;37.92;23.77;;;;;;;-1.16;100.00;92683.94;2583338;23;19999;-84
2023/03/02 04:19:46;;;;;;;38.25;24.02;;;;;;;-1.17;100.00;92683.19;2560309;23;20032;-86
2023/03/02 04:20:50;;;;;;;36.95;23.05;;;;;;;-1.21;100.00;92685.00;2559508;23;20088;-87
2023/03/02 04:21:54;;;;;;;40.35;23.27;;;;;;;-0.98;100.00;92687.59;2559869;23;20008;-86
2023/03/02 04:22:59;;;;;;;37.50;24.50;;;;;;;-1.19;100.00;92685.41;2559422;23;20009;-89
2023/03/02 04:24:05;;;;;;;37.75;23.45;;;;;;;-1.19;100.00;92689.88;2571765;23;20009;-87
2023/03/02 04:25:07;;;;;;;39.70;24.42;;;;;;;-1.23;100.00;92689.06;2573144;22;20028;-87
2023/03/02 04:26:09;;;;;;;41.47;25.13;;;;;;;-1.32;100.00;92691.94;2583566;22;20000;-86
2023/03/02 04:27:15;;;;;;;38.47;25.70;;;;;;;-1.32;100.00;92691.94;2571126;23;20005;-86
2023/03/02 04:28:17;;;;;;;41.00;24.45;;;;;;;-1.33;100.00;92698.28;2560460;23;20424;-85
2023/03/02 04:29:22;;;;;;;38.78;24.35;;;;;;;-1.24;100.00;92690.19;2558400;23;20009;-82
2023/03/02 04:30:26;;;;;;;39.35;25.33;;;;;;;-1.30;100.00;92692.34;2571504;23;20016;-87
2023/03/02 04:31:30;;;;;;;42.20;24.55;;;;;;;-1.27;100.00;92695.03;2571080;23;20508;-85
2023/03/02 04:32:32;;;;;;;37.33;24.63;;;;;;;-1.28;100.00;92698.00;2559597;23;20009;-87
2023/03/02 04:33:33;;;;;;;38.78;23.33;;;;;;;-0.92;100.00;92698.53;2570867;22;20011;-87
2023/03/02 04:34:41;;;;;;;37.08;24.50;;;;;;;-1.08;100.00;92696.06;2572536;23;20007;-84
2023/03/02 04:35:45;;;;;;;38.13;24.20;;;;;;;-1.12;100.00;92706.50;2561427;23;20084;-84
2023/03/02 04:36:49;;;;;;;36.97;23.73;;;;;;;-1.24;100.00;92704.06;2561117;23;20012;-84
2023/03/02 04:37:53;;;;;;;40.38;24.48;;;;;;;-1.07;100.00;92685.22;2560928;23;20027;-87
2023/03/02 04:39:00;;;;;;;39.17;24.52;;;;;;;-1.17;100.00;92690.31;2572850;22;20000;-83
2023/03/02 04:40:03;;;;;;;38.22;23.73;;;;;;;-1.06;100.00;92684.09;2573066;23;20123;-85
2023/03/02 04:41:06;;;;;;;39.17;24.52;;;;;;;-1.04;100.00;92689.00;2560796;23;20067;-87
2023/03/02 04:42:08;;;;;;;38.88;24.25;;;;;;;-1.11;100.00;92692.25;2571488;23;20056;-85
2023/03/02 04:43:10;;;;;;;43.10;24.75;;;;;;;-1.00;100.00;92697.69;2571206;22;20031;-84
2023/03/02 04:44:12;;;;;;;38.15;24.80;;;;;;;-1.03;100.00;92698.38;2570865;23;20343;-84
2023/03/02 04:45:21;;;;;;;38.75;24.38;;;;;;;-1.16;100.00;92691.81;2573977;22;20009;-88
2023/03/02 04:46:27;;;;;;;37.50;23.92;;;;;;;-1.20;100.00;92699.63;2583396;22;20323;-86
2023/03/02 04:47:31;;;;;;;40.05;24.48;;;;;;;-1.24;100.00;92696.19;2571816;23;20019;-85
2023/03/02 04:48:32;;;;;;;38.47;23.80;;;;;;;-1.24;100.00;92692.81;2572277;22;20011;-86
2023/03/02 04:49:38;;;;;;;38.42;23.27;;;;;;;-1.41;100.00;92697.41;2570661;23;20008;-85
2023/03/02 04:50:41;;;;;;;41.95;24.77;;;;;;;-1.28;100.00;92692.75;2573013;22;20074;-85
2023/03/02 04:51:45;;;;;;;40.05;24.80;;;;;;;-1.35;100.00;92693.41;2571821;23;20032;-83
2023/03/02 04:52:46;;;;;;;41.72;24.60;;;;;;;-1.39;100.00;92691.84;2584050;22;20012;-86
2023/03/02 04:53:47;;;;;;;43.85;24.92;;;;;;;-1.35;100.00;92705.75;2583050;23;20367;-85
2023/03/02 04:56:41;;;;;;;42.33;24.42;;;;;;;-1.24;100.00;92698.81;2590550;22;20004;-86
2023/03/02 04:57:43;;;;;;;40.80;24.52;;;;;;;-1.27;100.00;92694.28;2570698;23;20008;-84
2023/03/02 04:58:44;;;;;;;39.75;24.88;;;;;;;-1.27;100.00;92696.91;2571049;22;20005;-85
2023/03/02 04:59:45;;;;;;;42.30;24.67;;;;;;;-1.14;100.00;92698.22;2570755;23;20719;-84
2023/03/02 05:00:46;;;;;;;38.78;24.25;;;;;;;-1.23;100.00;92699.56;2570544;23;20026;-88
2023/03/02 05:01:58;;;;;;;45.08;26.20;;;;;;;-1.23;100.00;92702.94;2570496;23;20008;-86
2023/03/02 05:03:02;;;;;;;40.33;25.67;;;;;;;-1.27;100.00;92696.91;2562758;23;20000;-83